createdAt,value
2019-03-01T00:04:03.899Z,7.00
2019-03-01T00:09:40.281Z,8.40
2019-03-01T00:15:04.876Z,7.20
2019-03-01T00:20:43.978Z,7.20
2019-03-01T00:26:13.225Z,7.25
2019-03-01T00:32:16.627Z,8.00
2019-03-01T00:38:17.365Z,7.00
2019-03-01T00:44:13.555Z,8.00
2019-03-01T00:49:17.429Z,9.20
2019-03-01T00:54:21.231Z,8.50
2019-03-01T00:59:25.097Z,7.75
2019-03-01T01:04:28.911Z,8.00
2019-03-01T01:09:33.949Z,7.25
2019-03-01T01:14:37.740Z,8.50
2019-03-01T01:19:41.525Z,7.00
2019-03-01T01:24:45.312Z,8.00
2019-03-01T01:29:49.078Z,7.25
2019-03-01T01:34:52.850Z,7.00
2019-03-01T01:39:56.681Z,7.20
2019-03-01T01:45:00.447Z,7.00
2019-03-01T01:50:05.037Z,5.00
2019-03-01T01:55:08.817Z,5.40
2019-03-01T02:00:12.775Z,5.00
2019-03-01T02:05:16.689Z,6.20
2019-03-01T02:10:20.575Z,5.00
2019-03-01T02:15:24.373Z,6.00
2019-03-01T02:20:28.228Z,6.00
2019-03-01T02:25:32.226Z,7.00
2019-03-01T02:30:36.102Z,5.00
2019-03-01T02:35:39.871Z,6.25
2019-03-01T02:40:43.640Z,5.50
2019-03-01T02:45:47.492Z,4.00
2019-03-01T02:50:51.267Z,5.00
2019-03-01T02:55:55.046Z,5.40
2019-03-01T03:00:58.804Z,4.00
2019-03-01T03:06:20.505Z,6.25
2019-03-01T03:11:24.272Z,6.00
2019-03-01T03:16:28.723Z,3.80
2019-03-01T03:21:32.482Z,5.50
2019-03-01T03:26:36.359Z,4.00
2019-03-01T03:31:40.135Z,4.80
2019-03-01T03:36:43.896Z,5.50
2019-03-01T03:41:47.681Z,4.00
2019-03-01T03:46:51.581Z,4.00
2019-03-01T03:51:55.350Z,4.00
2019-03-01T03:56:59.159Z,4.00
2019-03-01T04:02:03.061Z,4.00
2019-03-01T04:07:06.892Z,4.00
2019-03-01T04:12:10.655Z,3.25
2019-03-01T04:17:14.559Z,5.50
2019-03-01T04:22:18.363Z,4.00
2019-03-01T04:27:22.122Z,3.25
2019-03-01T04:32:25.954Z,3.00
2019-03-01T04:37:30.273Z,3.00
2019-03-01T04:42:34.066Z,3.75
2019-03-01T04:47:37.805Z,3.40
2019-03-01T04:52:41.668Z,3.25
2019-03-01T04:57:45.423Z,3.50
2019-03-01T05:02:49.165Z,3.00
2019-03-01T05:07:52.905Z,4.00
2019-03-01T05:12:57.797Z,4.00
2019-03-01T05:18:01.550Z,3.50
2019-03-01T05:23:05.303Z,3.50
2019-03-01T05:28:09.048Z,3.25
2019-03-01T05:33:12.811Z,4.00
2019-03-01T05:38:21.819Z,4.00
2019-03-01T05:43:22.048Z,3.50
2019-03-01T05:48:25.787Z,3.00
2019-03-01T05:53:29.553Z,4.00
2019-03-01T05:58:38.493Z,3.00
2019-03-01T06:04:15.564Z,4.00
2019-03-01T06:09:42.147Z,2.00
2019-03-01T06:15:14.395Z,3.00
2019-03-01T06:20:41.174Z,3.25
2019-03-01T06:26:10.574Z,3.00
2019-03-01T06:31:59.907Z,2.75
2019-03-01T06:37:20.609Z,3.75
2019-03-01T06:43:11.432Z,2.80
2019-03-01T06:48:24.904Z,2.00
2019-03-01T06:53:28.672Z,3.00
2019-03-01T06:58:40.927Z,3.00
2019-03-01T07:03:47.199Z,3.00
2019-03-01T07:08:50.976Z,3.00
2019-03-01T07:13:54.740Z,2.50
2019-03-01T07:18:58.521Z,3.00
2019-03-01T07:24:02.280Z,3.00
2019-03-01T07:29:06.447Z,2.40
2019-03-01T07:34:10.202Z,2.00
2019-03-01T07:39:13.964Z,2.20
2019-03-01T07:44:17.809Z,2.00
2019-03-01T07:49:21.555Z,2.00
2019-03-01T07:54:25.371Z,14.00
2019-03-01T07:59:33.459Z,13.00
2019-03-01T08:04:34.915Z,12.00
2019-03-01T08:09:41.283Z,11.00
2019-03-01T08:14:44.157Z,8.75
2019-03-01T08:19:47.929Z,10.00
2019-03-01T08:24:51.683Z,6.25
2019-03-01T08:29:55.442Z,6.00
2019-03-01T08:34:59.213Z,4.80
2019-03-01T08:40:03.144Z,3.00
2019-03-01T08:45:07.580Z,3.00
2019-03-01T08:50:13.410Z,3.00
2019-03-01T08:55:18.160Z,3.75
2019-03-01T09:00:26.977Z,1.75
2019-03-01T09:05:29.727Z,3.50
2019-03-01T09:10:33.667Z,3.00
2019-03-01T09:15:37.619Z,3.00
2019-03-01T09:20:41.365Z,2.80
2019-03-01T09:25:45.364Z,2.80
2019-03-01T09:30:49.150Z,2.80
2019-03-01T09:35:57.323Z,1.80
2019-03-01T09:41:04.097Z,2.00
2019-03-01T09:46:06.548Z,2.00
2019-03-01T09:51:11.404Z,3.00
2019-03-01T09:56:15.338Z,2.40
2019-03-01T10:01:19.947Z,2.00
2019-03-01T10:06:23.702Z,2.00
2019-03-01T10:11:27.464Z,3.00
2019-03-01T10:16:31.223Z,3.00
2019-03-01T10:21:34.966Z,2.50
2019-03-01T10:26:38.735Z,3.00
2019-03-01T10:31:42.490Z,2.50
2019-03-01T10:36:46.241Z,2.80
2019-03-01T10:41:49.980Z,2.60
2019-03-01T10:46:53.725Z,3.00
2019-03-01T10:51:57.493Z,2.00
2019-03-01T10:57:01.336Z,2.80
2019-03-01T11:02:05.164Z,2.25
2019-03-01T11:07:08.932Z,3.00
2019-03-01T11:12:12.685Z,2.00
2019-03-01T11:17:16.438Z,2.00
2019-03-01T11:22:20.243Z,2.25
2019-03-01T11:27:24.089Z,2.00
2019-03-01T11:32:27.867Z,2.25
2019-03-01T11:37:31.625Z,2.00
2019-03-01T11:42:35.380Z,2.00
2019-03-01T11:47:39.851Z,2.00
2019-03-01T11:52:43.640Z,2.00
2019-03-01T11:57:47.392Z,1.50
2019-03-01T12:02:51.516Z,2.00
2019-03-01T12:07:55.326Z,2.00
2019-03-01T12:12:59.106Z,2.00
2019-03-01T12:18:03.112Z,2.00
2019-03-01T12:23:06.854Z,1.60
2019-03-01T12:28:10.616Z,2.00
2019-03-01T12:33:14.400Z,2.00
2019-03-01T12:38:18.150Z,2.00
2019-03-01T12:43:21.909Z,1.00
2019-03-01T12:48:25.670Z,3.00
2019-03-01T12:53:29.430Z,2.00
2019-03-01T12:58:33.191Z,4.00
2019-03-01T13:03:36.931Z,2.40
2019-03-01T13:08:40.690Z,2.00
2019-03-01T13:13:44.473Z,2.75
2019-03-01T13:18:51.308Z,3.00
2019-03-01T13:23:55.739Z,5.00
2019-03-01T13:28:59.506Z,5.00
2019-03-01T13:34:03.341Z,3.00
2019-03-01T13:39:10.451Z,3.50
2019-03-01T13:44:13.506Z,5.00
2019-03-01T13:49:17.282Z,3.50
2019-03-01T13:54:21.495Z,2.80
2019-03-01T13:59:25.322Z,4.00
2019-03-01T14:04:29.171Z,3.25
2019-03-01T14:09:34.419Z,3.50
2019-03-01T14:14:38.322Z,3.00
2019-03-01T14:19:43.068Z,3.00
2019-03-01T14:24:46.921Z,3.00
2019-03-01T14:29:53.597Z,2.00
2019-03-01T14:34:56.210Z,3.00
2019-03-01T14:39:59.976Z,3.00
2019-03-01T14:45:06.615Z,2.00
2019-03-01T14:50:11.289Z,2.00
2019-03-01T14:55:19.711Z,2.00
2019-03-01T15:00:53.685Z,3.00
2019-03-01T15:05:57.710Z,2.00
2019-03-01T15:11:07.972Z,1.50
2019-03-01T15:16:12.994Z,2.00
2019-03-01T15:21:17.042Z,2.00
2019-03-01T15:26:23.108Z,2.25
2019-03-01T15:31:26.312Z,2.00
2019-03-01T15:36:30.169Z,2.00
2019-03-01T15:41:35.128Z,2.00
2019-03-01T15:46:38.905Z,2.00
2019-03-01T15:51:45.242Z,3.00
2019-03-01T15:56:49.042Z,1.00
2019-03-01T16:01:52.914Z,2.00
2019-03-01T16:06:56.814Z,3.00
2019-03-01T16:12:00.595Z,1.25
2019-03-01T16:17:04.568Z,2.00
2019-03-01T16:22:08.420Z,2.60
2019-03-01T16:27:15.167Z,1.75
2019-03-01T16:32:17.781Z,1.50
2019-03-01T16:37:22.686Z,2.00
2019-03-01T16:42:27.124Z,2.00
2019-03-01T16:47:30.917Z,2.00
2019-03-01T16:52:34.699Z,2.00
2019-03-01T16:57:38.541Z,2.60
2019-03-01T17:02:43.177Z,2.00
2019-03-01T17:07:47.010Z,1.60
2019-03-01T17:12:52.025Z,2.00
2019-03-01T17:17:56.311Z,2.50
2019-03-01T17:23:03.117Z,3.00
2019-03-01T17:28:05.752Z,2.25
2019-03-01T17:33:12.513Z,3.50
2019-03-01T17:38:15.150Z,3.00
2019-03-01T17:43:19.402Z,3.40
2019-03-01T17:48:23.179Z,4.00
2019-03-01T17:53:26.952Z,4.00
2019-03-01T17:58:30.769Z,4.50
2019-03-01T18:03:34.527Z,3.25
2019-03-01T18:08:39.699Z,3.00
2019-03-01T18:13:43.930Z,4.00
2019-03-01T18:18:49.413Z,2.75
2019-03-01T18:23:53.290Z,4.00
2019-03-01T18:28:57.037Z,2.40
2019-03-01T18:34:00.865Z,3.60
2019-03-01T18:39:10.221Z,2.50
2019-03-01T18:44:14.075Z,3.00
2019-03-01T18:49:19.751Z,4.00
2019-03-01T18:54:23.439Z,3.00
2019-03-01T18:59:27.180Z,3.50
2019-03-01T19:04:30.991Z,3.00
2019-03-01T19:09:36.261Z,3.00
2019-03-01T19:14:40.260Z,2.00
2019-03-01T19:19:44.294Z,4.00
2019-03-01T19:24:50.074Z,3.00
2019-03-01T19:29:53.586Z,4.00
2019-03-01T19:34:58.990Z,3.00
2019-03-01T19:40:03.006Z,2.00
2019-03-01T19:45:07.485Z,3.60
2019-03-01T19:50:13.284Z,2.00
2019-03-01T19:55:17.133Z,3.20
2019-03-01T20:00:22.231Z,3.50
2019-03-01T20:05:27.904Z,3.00
2019-03-01T20:10:32.143Z,3.25
2019-03-01T20:15:35.978Z,3.00
2019-03-01T20:20:39.936Z,3.60
2019-03-01T20:25:43.710Z,3.25
2019-03-01T20:30:47.479Z,4.00
2019-03-01T20:35:51.259Z,4.00
2019-03-01T20:40:55.019Z,4.00
2019-03-01T20:45:58.787Z,4.40
2019-03-01T20:51:02.590Z,4.00
2019-03-01T20:56:06.447Z,4.00
2019-03-01T21:01:10.275Z,4.00
2019-03-01T21:06:14.076Z,4.00
2019-03-01T21:11:17.870Z,3.00
2019-03-01T21:16:21.633Z,4.00
2019-03-01T21:21:25.580Z,4.00
2019-03-01T21:26:30.891Z,3.20
2019-03-01T21:31:35.406Z,3.00
2019-03-01T21:36:40.306Z,2.00
2019-03-01T21:41:44.753Z,3.00
2019-03-01T21:46:49.386Z,3.40
2019-03-01T21:51:55.214Z,3.00
2019-03-01T21:56:58.634Z,4.00
2019-03-01T22:02:02.426Z,2.50
2019-03-01T22:07:06.329Z,2.25
2019-03-01T22:12:10.105Z,2.00
2019-03-01T22:17:14.442Z,3.00
2019-03-01T22:22:18.332Z,3.00
2019-03-01T22:27:25.324Z,3.00
2019-03-01T22:32:29.051Z,3.00
2019-03-01T22:37:32.881Z,2.75
2019-03-01T22:42:36.651Z,3.00
2019-03-01T22:47:40.417Z,2.75
2019-03-01T22:52:44.305Z,2.00
2019-03-01T22:57:48.093Z,2.00
2019-03-01T23:02:51.851Z,2.40
2019-03-01T23:07:56.805Z,2.50
2019-03-01T23:13:01.179Z,2.00
2019-03-01T23:18:05.691Z,2.40
2019-03-01T23:23:10.370Z,2.00
2019-03-01T23:28:14.264Z,2.00
2019-03-01T23:33:18.009Z,2.50
2019-03-01T23:38:21.797Z,1.25
2019-03-01T23:43:27.543Z,2.00
2019-03-01T23:48:31.140Z,2.80
2019-03-01T23:53:34.941Z,2.00
2019-03-01T23:58:38.761Z,2.00
